Middle Georgia Regional Airport
KMCN : now visible

Airfield :











YOU CAN JOIN US ON...

 
LOGIN :

Register | Disclaimer

   EN    FR    IT 

 









Legend :    VFR   Marginal VFR   IFR   Intensive IFR   Very Intensive IFR
Visi :
Ceiling :
>= 8 km
>= 3000ft
5 to 8 km
1000 to 3000 ft
1500m to 5 km
500 to 1000 ft
800 to 1500m
200 to 500 ft
< 800m
< 200 ft
Symbols :   Thunderstorms  Fog  Heavy snow  Heavy precipitations  Wind > 20 kt







- Airport Elevation : 354 ft
- IATA code : MCN


KMCN - Middle Georgia Regional

CURRENT METAR :
  • 201953Z 16010KT 10SM CLR 31/10 A3020 RMK AO2 SLP222 T03110100

EXPIRED METARs :
  • 201853Z VRB03KT 10SM CLR 31/12 A3022 RMK AO2 SLP230 T03110117
  • 201753Z 11007KT 080V150 10SM FEW055 29/12 A3025 RMK AO2 SLP238 T02940122 10294 20111 58016

TAF KMCN
Valid from the 20 at 20:00 until the 21 at 18:00 UTC


201935Z 2020/2118 11007KT P6SM FEW060
FM210000 07003KT P6SM FEW120 SCT250
FM211400 11007KT P6SM FEW070 SCT250
No reported NOTAMs for that airfield.



MET'MAP, your aeronautical weather chart ! - Copyright ORBIFLY December 2007 - Disclaimer

ORBIFLY MET'MAP TEAM :

Programming & Development : Alexandra Zaïnal
Concept & Development : Baudouin d'Aumeries
Co-Development & Prog : Marc-Olivier Méhu
Technical & hardware support : Manuel Goepfert

Contact : metmap@orbifly.com




SOURCES & CREDITS :

   NOAA       Earth
Advisory